Decoded Metar for SAZN (NEUQUEN in ARGENTINA) (IATA:NQN) | Meteo·Mobile Aviation Weather
aviador You're here:

SAZN Decoded Metar

NEUQUEN in ARGENTINA
Report Time2018-12-14 13:00:00
UTC Time2018-12-14 13:29:14
Flight Rules vfr VFR
Wind360° at 18 Gusting to 34 kt
W.Decomp.*RWY 27: 1.3 kt HW 18.0 kt RCW
Visibility9999 m
Phenomena:N/A
Clouds:N/A
Expected CloudBase > 6,800 ft AGL from Temp-Dew spread
CeilingNone
Temp17°C (ISA +4)
Dew Point00°C (32% RH)
AAT8.6°C
QNH1014 hPa
Density Alt1,385 ft
Elevation889 ft
Report Wrong Elevation
Raw Report
SAZN 141300Z 36018G34KT CAVOK 17/00 Q1014=

Extra information for SAZN:More info

Metar Taf Metar & Taf Last 4 Metars F.Rules Stats Wind Profile Meteogram Temp Stats Airport Information Weather charts Add Link Nearby VenuesMetar ALERT Operation Metar Decoded Social comments